sensor_id;sensor_type;location;lat;lon;timestamp;P1;durP1;ratioP1;P2;durP2;ratioP2
55455;SDS011;63021;52.836;6.376;2023-03-14T00:02:10;26.20;;;5.72;;
55455;SDS011;63021;52.836;6.376;2023-03-14T00:04:36;13.02;;;3.92;;
55455;SDS011;63021;52.836;6.376;2023-03-14T00:07:02;17.13;;;5.50;;
55455;SDS011;63021;52.836;6.376;2023-03-14T00:09:27;19.13;;;4.68;;
55455;SDS011;63021;52.836;6.376;2023-03-14T00:11:54;31.42;;;5.43;;
55455;SDS011;63021;52.836;6.376;2023-03-14T00:14:20;27.10;;;4.78;;
55455;SDS011;63021;52.836;6.376;2023-03-14T00:16:46;21.02;;;4.25;;
55455;SDS011;63021;52.836;6.376;2023-03-14T00:19:13;23.77;;;5.28;;
55455;SDS011;63021;52.836;6.376;2023-03-14T00:21:39;21.38;;;5.03;;
55455;SDS011;63021;52.836;6.376;2023-03-14T00:24:04;17.75;;;4.22;;
55455;SDS011;63021;52.836;6.376;2023-03-14T00:26:30;19.90;;;3.72;;
55455;SDS011;63021;52.836;6.376;2023-03-14T00:28:56;18.42;;;4.72;;
55455;SDS011;63021;52.836;6.376;2023-03-14T00:31:22;30.13;;;6.93;;
55455;SDS011;63021;52.836;6.376;2023-03-14T00:33:47;24.15;;;5.30;;
55455;SDS011;63021;52.836;6.376;2023-03-14T00:36:17;15.07;;;4.13;;
55455;SDS011;63021;52.836;6.376;2023-03-14T00:38:44;27.52;;;4.55;;
55455;SDS011;63021;52.836;6.376;2023-03-14T00:41:12;19.25;;;4.68;;
55455;SDS011;63021;52.836;6.376;2023-03-14T00:43:39;17.90;;;4.50;;
55455;SDS011;63021;52.836;6.376;2023-03-14T00:46:07;24.77;;;4.90;;
55455;SDS011;63021;52.836;6.376;2023-03-14T00:48:33;19.00;;;4.03;;
55455;SDS011;63021;52.836;6.376;2023-03-14T00:50:59;17.70;;;4.57;;
55455;SDS011;63021;52.836;6.376;2023-03-14T00:53:24;21.20;;;4.55;;
55455;SDS011;63021;52.836;6.376;2023-03-14T00:58:18;22.05;;;4.65;;
55455;SDS011;63021;52.836;6.376;2023-03-14T01:00:44;20.48;;;4.85;;
55455;SDS011;63021;52.836;6.376;2023-03-14T01:03:10;15.82;;;4.63;;
55455;SDS011;63021;52.836;6.376;2023-03-14T01:05:38;28.65;;;6.40;;
55455;SDS011;63021;52.836;6.376;2023-03-14T01:08:04;23.27;;;5.65;;
55455;SDS011;63021;52.836;6.376;2023-03-14T01:10:30;23.58;;;6.88;;
55455;SDS011;63021;52.836;6.376;2023-03-14T01:12:56;19.52;;;5.45;;
55455;SDS011;63021;52.836;6.376;2023-03-14T01:15:23;21.60;;;5.78;;
55455;SDS011;63021;52.836;6.376;2023-03-14T01:17:49;18.88;;;4.60;;
55455;SDS011;63021;52.836;6.376;2023-03-14T01:20:14;18.45;;;4.32;;
55455;SDS011;63021;52.836;6.376;2023-03-14T01:22:40;18.02;;;5.10;;
55455;SDS011;63021;52.836;6.376;2023-03-14T01:25:08;16.50;;;4.75;;
55455;SDS011;63021;52.836;6.376;2023-03-14T01:27:37;15.95;;;4.15;;
55455;SDS011;63021;52.836;6.376;2023-03-14T01:30:02;16.60;;;5.70;;
55455;SDS011;63021;52.836;6.376;2023-03-14T01:32:29;14.23;;;3.85;;
55455;SDS011;63021;52.836;6.376;2023-03-14T01:34:55;18.33;;;3.65;;
55455;SDS011;63021;52.836;6.376;2023-03-14T01:37:20;17.83;;;3.72;;
55455;SDS011;63021;52.836;6.376;2023-03-14T01:39:47;22.88;;;5.13;;
55455;SDS011;63021;52.836;6.376;2023-03-14T01:42:13;17.92;;;3.55;;
55455;SDS011;63021;52.836;6.376;2023-03-14T01:44:58;17.40;;;3.97;;
55455;SDS011;63021;52.836;6.376;2023-03-14T01:47:26;19.15;;;4.32;;
55455;SDS011;63021;52.836;6.376;2023-03-14T01:49:59;13.98;;;3.55;;
55455;SDS011;63021;52.836;6.376;2023-03-14T01:52:32;18.58;;;4.50;;
55455;SDS011;63021;52.836;6.376;2023-03-14T01:55:12;14.90;;;3.70;;
55455;SDS011;63021;52.836;6.376;2023-03-14T01:57:44;18.00;;;3.97;;
55455;SDS011;63021;52.836;6.376;2023-03-14T02:00:14;16.83;;;4.78;;
55455;SDS011;63021;52.836;6.376;2023-03-14T02:02:45;18.52;;;2.95;;
55455;SDS011;63021;52.836;6.376;2023-03-14T02:05:12;12.88;;;3.53;;
55455;SDS011;63021;52.836;6.376;2023-03-14T02:08:02;12.18;;;3.28;;
55455;SDS011;63021;52.836;6.376;2023-03-14T02:10:28;12.63;;;3.28;;
55455;SDS011;63021;52.836;6.376;2023-03-14T02:12:56;13.05;;;3.90;;
55455;SDS011;63021;52.836;6.376;2023-03-14T02:15:26;13.32;;;3.10;;
55455;SDS011;63021;52.836;6.376;2023-03-14T02:17:52;15.45;;;3.38;;
55455;SDS011;63021;52.836;6.376;2023-03-14T02:23:07;13.38;;;3.40;;
55455;SDS011;63021;52.836;6.376;2023-03-14T02:28:07;13.30;;;3.78;;
55455;SDS011;63021;52.836;6.376;2023-03-14T02:30:33;17.65;;;4.30;;
55455;SDS011;63021;52.836;6.376;2023-03-14T02:33:10;18.67;;;4.05;;
55455;SDS011;63021;52.836;6.376;2023-03-14T02:35:43;21.40;;;5.85;;
55455;SDS011;63021;52.836;6.376;2023-03-14T02:40:56;16.35;;;4.10;;
55455;SDS011;63021;52.836;6.376;2023-03-14T02:43:21;15.40;;;3.78;;
55455;SDS011;63021;52.836;6.376;2023-03-14T02:45:47;14.13;;;4.45;;
55455;SDS011;63021;52.836;6.376;2023-03-14T02:48:22;18.73;;;4.45;;
55455;SDS011;63021;52.836;6.376;2023-03-14T02:50:53;17.27;;;4.05;;
55455;SDS011;63021;52.836;6.376;2023-03-14T02:53:30;16.85;;;4.78;;
55455;SDS011;63021;52.836;6.376;2023-03-14T02:55:58;15.68;;;3.53;;
55455;SDS011;63021;52.836;6.376;2023-03-14T02:58:24;12.30;;;3.55;;
55455;SDS011;63021;52.836;6.376;2023-03-14T03:00:50;12.38;;;3.60;;
55455;SDS011;63021;52.836;6.376;2023-03-14T03:03:16;15.38;;;4.30;;
55455;SDS011;63021;52.836;6.376;2023-03-14T03:05:42;11.45;;;3.85;;
55455;SDS011;63021;52.836;6.376;2023-03-14T03:08:08;13.55;;;4.10;;
55455;SDS011;63021;52.836;6.376;2023-03-14T03:10:34;11.70;;;3.53;;
55455;SDS011;63021;52.836;6.376;2023-03-14T03:13:00;13.30;;;3.05;;
55455;SDS011;63021;52.836;6.376;2023-03-14T03:15:26;10.30;;;3.67;;
55455;SDS011;63021;52.836;6.376;2023-03-14T03:17:52;6.05;;;2.83;;
55455;SDS011;63021;52.836;6.376;2023-03-14T03:20:18;6.70;;;3.30;;
55455;SDS011;63021;52.836;6.376;2023-03-14T03:22:43;8.35;;;3.08;;
55455;SDS011;63021;52.836;6.376;2023-03-14T03:25:09;8.70;;;4.20;;
55455;SDS011;63021;52.836;6.376;2023-03-14T03:27:36;12.27;;;5.00;;
55455;SDS011;63021;52.836;6.376;2023-03-14T03:30:04;11.77;;;3.63;;
55455;SDS011;63021;52.836;6.376;2023-03-14T03:32:32;13.35;;;4.03;;
55455;SDS011;63021;52.836;6.376;2023-03-14T03:34:57;12.80;;;4.65;;
55455;SDS011;63021;52.836;6.376;2023-03-14T03:37:23;14.57;;;4.40;;
55455;SDS011;63021;52.836;6.376;2023-03-14T03:39:52;7.82;;;4.30;;
55455;SDS011;63021;52.836;6.376;2023-03-14T03:42:18;10.20;;;4.55;;
55455;SDS011;63021;52.836;6.376;2023-03-14T03:44:44;17.90;;;4.50;;
55455;SDS011;63021;52.836;6.376;2023-03-14T03:47:10;12.70;;;4.40;;
55455;SDS011;63021;52.836;6.376;2023-03-14T03:49:37;21.60;;;5.35;;
55455;SDS011;63021;52.836;6.376;2023-03-14T03:52:02;17.05;;;4.25;;
55455;SDS011;63021;52.836;6.376;2023-03-14T03:54:27;14.25;;;4.85;;
55455;SDS011;63021;52.836;6.376;2023-03-14T03:56:54;12.45;;;3.85;;
55455;SDS011;63021;52.836;6.376;2023-03-14T03:59:19;14.27;;;4.00;;
55455;SDS011;63021;52.836;6.376;2023-03-14T04:01:45;8.65;;;4.13;;
55455;SDS011;63021;52.836;6.376;2023-03-14T04:04:11;18.83;;;5.00;;
55455;SDS011;63021;52.836;6.376;2023-03-14T04:06:37;20.27;;;4.13;;
55455;SDS011;63021;52.836;6.376;2023-03-14T04:11:34;12.05;;;3.83;;
55455;SDS011;63021;52.836;6.376;2023-03-14T04:14:00;13.32;;;3.45;;
55455;SDS011;63021;52.836;6.376;2023-03-14T04:16:25;15.40;;;3.58;;
55455;SDS011;63021;52.836;6.376;2023-03-14T04:18:54;7.88;;;3.60;;
55455;SDS011;63021;52.836;6.376;2023-03-14T04:21:19;16.27;;;4.00;;
55455;SDS011;63021;52.836;6.376;2023-03-14T04:23:45;8.00;;;3.00;;
55455;SDS011;63021;52.836;6.376;2023-03-14T04:26:11;12.15;;;3.78;;
55455;SDS011;63021;52.836;6.376;2023-03-14T04:28:37;10.15;;;3.40;;
55455;SDS011;63021;52.836;6.376;2023-03-14T04:31:20;10.90;;;3.00;;
55455;SDS011;63021;52.836;6.376;2023-03-14T04:33:53;10.85;;;3.80;;
55455;SDS011;63021;52.836;6.376;2023-03-14T04:36:18;11.52;;;4.07;;
55455;SDS011;63021;52.836;6.376;2023-03-14T04:38:43;10.05;;;3.75;;
55455;SDS011;63021;52.836;6.376;2023-03-14T04:41:09;12.80;;;4.00;;
55455;SDS011;63021;52.836;6.376;2023-03-14T04:43:34;12.20;;;4.07;;
55455;SDS011;63021;52.836;6.376;2023-03-14T04:45:59;15.25;;;3.97;;
55455;SDS011;63021;52.836;6.376;2023-03-14T04:48:26;10.68;;;3.90;;
55455;SDS011;63021;52.836;6.376;2023-03-14T04:50:52;17.33;;;4.43;;
55455;SDS011;63021;52.836;6.376;2023-03-14T04:53:18;11.82;;;4.07;;
55455;SDS011;63021;52.836;6.376;2023-03-14T04:55:54;17.45;;;4.65;;
55455;SDS011;63021;52.836;6.376;2023-03-14T04:58:21;6.47;;;3.63;;
55455;SDS011;63021;52.836;6.376;2023-03-14T05:00:48;17.42;;;3.95;;
55455;SDS011;63021;52.836;6.376;2023-03-14T05:03:17;12.80;;;4.55;;
55455;SDS011;63021;52.836;6.376;2023-03-14T05:05:44;11.80;;;3.95;;
55455;SDS011;63021;52.836;6.376;2023-03-14T05:08:10;13.80;;;4.15;;
55455;SDS011;63021;52.836;6.376;2023-03-14T05:10:36;12.00;;;3.72;;
55455;SDS011;63021;52.836;6.376;2023-03-14T05:15:31;9.70;;;3.90;;
55455;SDS011;63021;52.836;6.376;2023-03-14T05:17:57;12.07;;;3.97;;
55455;SDS011;63021;52.836;6.376;2023-03-14T05:20:22;12.60;;;4.38;;
55455;SDS011;63021;52.836;6.376;2023-03-14T05:22:47;13.40;;;5.18;;
55455;SDS011;63021;52.836;6.376;2023-03-14T05:25:13;10.73;;;4.47;;
55455;SDS011;63021;52.836;6.376;2023-03-14T05:27:38;16.02;;;5.60;;
55455;SDS011;63021;52.836;6.376;2023-03-14T05:30:04;11.82;;;5.40;;
55455;SDS011;63021;52.836;6.376;2023-03-14T05:32:30;7.90;;;4.40;;
55455;SDS011;63021;52.836;6.376;2023-03-14T05:34:57;12.00;;;5.32;;
55455;SDS011;63021;52.836;6.376;2023-03-14T05:37:27;13.52;;;4.47;;
55455;SDS011;63021;52.836;6.376;2023-03-14T05:39:53;12.77;;;5.00;;
55455;SDS011;63021;52.836;6.376;2023-03-14T05:42:21;11.07;;;5.15;;
55455;SDS011;63021;52.836;6.376;2023-03-14T05:44:49;11.73;;;5.80;;
55455;SDS011;63021;52.836;6.376;2023-03-14T05:47:17;9.30;;;5.22;;
55455;SDS011;63021;52.836;6.376;2023-03-14T05:49:43;19.92;;;5.65;;
55455;SDS011;63021;52.836;6.376;2023-03-14T05:52:08;21.67;;;5.10;;
55455;SDS011;63021;52.836;6.376;2023-03-14T05:54:34;11.18;;;5.32;;
55455;SDS011;63021;52.836;6.376;2023-03-14T05:56:59;11.43;;;4.70;;
55455;SDS011;63021;52.836;6.376;2023-03-14T05:59:24;12.55;;;4.55;;
55455;SDS011;63021;52.836;6.376;2023-03-14T06:01:53;9.65;;;4.90;;
55455;SDS011;63021;52.836;6.376;2023-03-14T06:04:18;14.60;;;5.05;;
55455;SDS011;63021;52.836;6.376;2023-03-14T06:06:44;9.13;;;5.20;;
55455;SDS011;63021;52.836;6.376;2023-03-14T06:09:09;8.25;;;4.20;;
55455;SDS011;63021;52.836;6.376;2023-03-14T06:11:34;7.38;;;4.35;;
55455;SDS011;63021;52.836;6.376;2023-03-14T06:14:00;8.02;;;4.00;;
55455;SDS011;63021;52.836;6.376;2023-03-14T06:16:25;8.70;;;3.70;;
55455;SDS011;63021;52.836;6.376;2023-03-14T06:18:52;2.70;;;2.50;;
55455;SDS011;63021;52.836;6.376;2023-03-14T06:21:17;8.57;;;2.90;;
55455;SDS011;63021;52.836;6.376;2023-03-14T06:23:44;8.48;;;2.90;;
55455;SDS011;63021;52.836;6.376;2023-03-14T06:26:09;6.63;;;3.25;;
55455;SDS011;63021;52.836;6.376;2023-03-14T06:28:36;6.10;;;3.05;;
55455;SDS011;63021;52.836;6.376;2023-03-14T06:31:02;11.57;;;5.35;;
55455;SDS011;63021;52.836;6.376;2023-03-14T06:33:27;10.80;;;3.92;;
55455;SDS011;63021;52.836;6.376;2023-03-14T06:35:53;11.15;;;4.28;;
55455;SDS011;63021;52.836;6.376;2023-03-14T06:38:18;6.25;;;3.33;;
55455;SDS011;63021;52.836;6.376;2023-03-14T06:40:44;12.60;;;4.28;;
55455;SDS011;63021;52.836;6.376;2023-03-14T06:43:10;9.90;;;3.85;;
55455;SDS011;63021;52.836;6.376;2023-03-14T06:45:35;9.68;;;3.10;;
55455;SDS011;63021;52.836;6.376;2023-03-14T06:48:01;8.20;;;3.30;;
55455;SDS011;63021;52.836;6.376;2023-03-14T06:50:26;8.15;;;3.35;;
55455;SDS011;63021;52.836;6.376;2023-03-14T06:52:52;7.00;;;3.47;;
55455;SDS011;63021;52.836;6.376;2023-03-14T06:55:19;10.05;;;2.90;;
55455;SDS011;63021;52.836;6.376;2023-03-14T06:57:47;8.00;;;3.13;;
55455;SDS011;63021;52.836;6.376;2023-03-14T07:00:13;3.55;;;2.67;;
55455;SDS011;63021;52.836;6.376;2023-03-14T07:02:39;6.07;;;2.45;;
55455;SDS011;63021;52.836;6.376;2023-03-14T07:05:05;4.10;;;1.88;;
55455;SDS011;63021;52.836;6.376;2023-03-14T07:07:31;6.53;;;1.92;;
55455;SDS011;63021;52.836;6.376;2023-03-14T07:09:56;6.78;;;2.78;;
55455;SDS011;63021;52.836;6.376;2023-03-14T07:12:21;3.38;;;2.10;;
55455;SDS011;63021;52.836;6.376;2023-03-14T07:14:49;7.45;;;2.85;;
55455;SDS011;63021;52.836;6.376;2023-03-14T07:17:14;4.00;;;1.63;;
55455;SDS011;63021;52.836;6.376;2023-03-14T07:19:40;4.25;;;1.42;;
55455;SDS011;63021;52.836;6.376;2023-03-14T07:22:07;1.85;;;0.90;;
55455;SDS011;63021;52.836;6.376;2023-03-14T07:24:35;2.70;;;1.20;;
55455;SDS011;63021;52.836;6.376;2023-03-14T07:27:01;7.45;;;1.00;;
55455;SDS011;63021;52.836;6.376;2023-03-14T07:29:26;6.88;;;1.25;;
55455;SDS011;63021;52.836;6.376;2023-03-14T07:31:51;2.97;;;1.13;;
55455;SDS011;63021;52.836;6.376;2023-03-14T07:34:17;5.28;;;1.13;;
55455;SDS011;63021;52.836;6.376;2023-03-14T07:36:42;4.03;;;1.15;;
55455;SDS011;63021;52.836;6.376;2023-03-14T07:39:08;4.38;;;1.17;;
55455;SDS011;63021;52.836;6.376;2023-03-14T07:41:36;2.90;;;1.05;;
55455;SDS011;63021;52.836;6.376;2023-03-14T07:44:01;4.78;;;1.33;;
55455;SDS011;63021;52.836;6.376;2023-03-14T07:46:27;6.38;;;1.80;;
55455;SDS011;63021;52.836;6.376;2023-03-14T07:48:52;6.78;;;3.13;;
55455;SDS011;63021;52.836;6.376;2023-03-14T07:51:17;2.35;;;1.20;;
55455;SDS011;63021;52.836;6.376;2023-03-14T07:53:43;2.20;;;0.90;;
55455;SDS011;63021;52.836;6.376;2023-03-14T07:56:08;4.38;;;1.10;;
55455;SDS011;63021;52.836;6.376;2023-03-14T07:58:34;2.75;;;0.90;;
55455;SDS011;63021;52.836;6.376;2023-03-14T08:01:01;3.30;;;0.90;;
55455;SDS011;63021;52.836;6.376;2023-03-14T08:03:27;3.08;;;1.00;;
55455;SDS011;63021;52.836;6.376;2023-03-14T08:05:53;3.38;;;1.23;;
55455;SDS011;63021;52.836;6.376;2023-03-14T08:08:18;2.90;;;1.15;;
55455;SDS011;63021;52.836;6.376;2023-03-14T08:10:44;6.85;;;1.23;;
55455;SDS011;63021;52.836;6.376;2023-03-14T08:13:11;3.33;;;0.95;;
55455;SDS011;63021;52.836;6.376;2023-03-14T08:15:36;4.03;;;1.10;;
55455;SDS011;63021;52.836;6.376;2023-03-14T08:18:02;4.50;;;1.10;;
55455;SDS011;63021;52.836;6.376;2023-03-14T08:20:28;1.13;;;1.02;;
55455;SDS011;63021;52.836;6.376;2023-03-14T08:22:57;6.20;;;1.13;;
55455;SDS011;63021;52.836;6.376;2023-03-14T08:25:25;6.38;;;1.65;;
55455;SDS011;63021;52.836;6.376;2023-03-14T08:27:51;2.90;;;1.20;;
55455;SDS011;63021;52.836;6.376;2023-03-14T08:30:17;1.00;;;1.00;;
55455;SDS011;63021;52.836;6.376;2023-03-14T08:32:46;5.28;;;1.52;;
55455;SDS011;63021;52.836;6.376;2023-03-14T08:35:11;2.63;;;1.00;;
55455;SDS011;63021;52.836;6.376;2023-03-14T08:37:37;4.25;;;1.50;;
55455;SDS011;63021;52.836;6.376;2023-03-14T08:40:03;3.00;;;1.10;;
55455;SDS011;63021;52.836;6.376;2023-03-14T08:42:36;1.25;;;1.00;;
55455;SDS011;63021;52.836;6.376;2023-03-14T08:45:02;10.15;;;1.55;;
55455;SDS011;63021;52.836;6.376;2023-03-14T08:47:28;6.82;;;1.45;;
55455;SDS011;63021;52.836;6.376;2023-03-14T08:49:53;3.33;;;1.25;;
55455;SDS011;63021;52.836;6.376;2023-03-14T08:52:19;6.45;;;1.83;;
55455;SDS011;63021;52.836;6.376;2023-03-14T08:54:44;8.48;;;1.85;;
55455;SDS011;63021;52.836;6.376;2023-03-14T08:57:10;3.97;;;1.30;;
55455;SDS011;63021;52.836;6.376;2023-03-14T08:59:36;2.20;;;1.13;;
55455;SDS011;63021;52.836;6.376;2023-03-14T09:02:01;6.95;;;2.00;;
55455;SDS011;63021;52.836;6.376;2023-03-14T09:04:28;6.43;;;1.10;;
55455;SDS011;63021;52.836;6.376;2023-03-14T09:06:58;2.80;;;0.95;;
55455;SDS011;63021;52.836;6.376;2023-03-14T09:09:24;8.82;;;1.42;;
55455;SDS011;63021;52.836;6.376;2023-03-14T09:11:52;2.95;;;1.10;;
55455;SDS011;63021;52.836;6.376;2023-03-14T09:14:17;10.95;;;1.55;;
55455;SDS011;63021;52.836;6.376;2023-03-14T09:16:43;5.85;;;1.67;;
55455;SDS011;63021;52.836;6.376;2023-03-14T09:19:08;7.10;;;1.25;;
55455;SDS011;63021;52.836;6.376;2023-03-14T09:21:33;7.35;;;1.60;;
55455;SDS011;63021;52.836;6.376;2023-03-14T09:23:59;12.32;;;3.33;;
55455;SDS011;63021;52.836;6.376;2023-03-14T09:26:24;9.48;;;1.60;;
55455;SDS011;63021;52.836;6.376;2023-03-14T09:28:50;9.10;;;2.25;;
55455;SDS011;63021;52.836;6.376;2023-03-14T09:31:15;12.60;;;2.70;;
55455;SDS011;63021;52.836;6.376;2023-03-14T09:33:42;9.43;;;2.22;;
55455;SDS011;63021;52.836;6.376;2023-03-14T09:36:08;12.93;;;2.00;;
55455;SDS011;63021;52.836;6.376;2023-03-14T09:38:34;12.65;;;1.92;;
55455;SDS011;63021;52.836;6.376;2023-03-14T09:41:01;9.35;;;1.67;;
55455;SDS011;63021;52.836;6.376;2023-03-14T09:43:34;5.00;;;1.60;;
55455;SDS011;63021;52.836;6.376;2023-03-14T09:46:01;11.07;;;2.88;;
55455;SDS011;63021;52.836;6.376;2023-03-14T09:48:29;12.63;;;2.17;;
55455;SDS011;63021;52.836;6.376;2023-03-14T09:50:58;16.48;;;2.88;;
55455;SDS011;63021;52.836;6.376;2023-03-14T09:53:38;11.77;;;3.75;;
55455;SDS011;63021;52.836;6.376;2023-03-14T09:56:11;20.00;;;3.08;;
55455;SDS011;63021;52.836;6.376;2023-03-14T09:59:00;18.48;;;4.13;;
55455;SDS011;63021;52.836;6.376;2023-03-14T10:01:29;11.85;;;2.17;;
55455;SDS011;63021;52.836;6.376;2023-03-14T10:03:57;12.00;;;3.47;;
55455;SDS011;63021;52.836;6.376;2023-03-14T10:06:32;19.40;;;3.13;;
55455;SDS011;63021;52.836;6.376;2023-03-14T10:08:59;21.75;;;2.75;;
55455;SDS011;63021;52.836;6.376;2023-03-14T10:11:26;13.18;;;2.88;;
55455;SDS011;63021;52.836;6.376;2023-03-14T10:16:28;21.83;;;2.72;;
55455;SDS011;63021;52.836;6.376;2023-03-14T10:18:59;24.63;;;5.53;;
55455;SDS011;63021;52.836;6.376;2023-03-14T10:21:27;20.77;;;4.25;;
55455;SDS011;63021;52.836;6.376;2023-03-14T10:23:55;27.10;;;3.70;;
55455;SDS011;63021;52.836;6.376;2023-03-14T10:26:44;22.23;;;4.57;;
55455;SDS011;63021;52.836;6.376;2023-03-14T10:29:13;26.10;;;3.40;;
55455;SDS011;63021;52.836;6.376;2023-03-14T10:31:58;21.45;;;3.35;;
55455;SDS011;63021;52.836;6.376;2023-03-14T10:34:31;20.23;;;4.03;;
55455;SDS011;63021;52.836;6.376;2023-03-14T10:37:07;21.55;;;3.90;;
55455;SDS011;63021;52.836;6.376;2023-03-14T10:39:46;20.88;;;4.43;;
55455;SDS011;63021;52.836;6.376;2023-03-14T10:42:16;23.23;;;3.85;;
55455;SDS011;63021;52.836;6.376;2023-03-14T10:44:49;21.33;;;3.75;;
55455;SDS011;63021;52.836;6.376;2023-03-14T10:47:21;16.55;;;2.85;;
55455;SDS011;63021;52.836;6.376;2023-03-14T10:49:49;14.05;;;3.03;;
55455;SDS011;63021;52.836;6.376;2023-03-14T10:52:22;15.80;;;2.92;;
55455;SDS011;63021;52.836;6.376;2023-03-14T10:55:03;14.18;;;2.63;;
55455;SDS011;63021;52.836;6.376;2023-03-14T10:57:38;12.75;;;3.17;;
55455;SDS011;63021;52.836;6.376;2023-03-14T11:00:22;22.33;;;3.40;;
55455;SDS011;63021;52.836;6.376;2023-03-14T11:02:55;22.33;;;3.25;;
55455;SDS011;63021;52.836;6.376;2023-03-14T11:05:40;16.88;;;2.83;;
55455;SDS011;63021;52.836;6.376;2023-03-14T11:08:42;13.48;;;2.80;;
55455;SDS011;63021;52.836;6.376;2023-03-14T11:11:19;13.75;;;2.63;;
55455;SDS011;63021;52.836;6.376;2023-03-14T11:22:49;12.98;;;2.42;;
55455;SDS011;63021;52.836;6.376;2023-03-14T11:25:26;8.80;;;1.92;;
55455;SDS011;63021;52.836;6.376;2023-03-14T11:28:09;18.73;;;3.47;;
55455;SDS011;63021;52.836;6.376;2023-03-14T11:30:52;13.85;;;2.58;;
55455;SDS011;63021;52.836;6.376;2023-03-14T11:33:27;9.70;;;2.05;;
55455;SDS011;63021;52.836;6.376;2023-03-14T11:36:09;8.75;;;2.30;;
55455;SDS011;63021;52.836;6.376;2023-03-14T11:41:10;7.18;;;2.00;;
55455;SDS011;63021;52.836;6.376;2023-03-14T11:43:40;7.00;;;2.20;;
55455;SDS011;63021;52.836;6.376;2023-03-14T11:49:15;11.70;;;1.92;;
55455;SDS011;63021;52.836;6.376;2023-03-14T11:51:58;13.43;;;1.88;;
55455;SDS011;63021;52.836;6.376;2023-03-14T11:57:15;9.20;;;1.95;;
55455;SDS011;63021;52.836;6.376;2023-03-14T12:12:52;3.80;;;1.50;;
55455;SDS011;63021;52.836;6.376;2023-03-14T12:15:18;4.43;;;1.65;;
55455;SDS011;63021;52.836;6.376;2023-03-14T12:17:46;5.50;;;2.28;;
55455;SDS011;63021;52.836;6.376;2023-03-14T12:20:18;9.88;;;1.83;;
55455;SDS011;63021;52.836;6.376;2023-03-14T12:25:24;8.45;;;1.40;;
55455;SDS011;63021;52.836;6.376;2023-03-14T12:35:38;6.85;;;1.35;;
55455;SDS011;63021;52.836;6.376;2023-03-14T12:41:03;10.02;;;1.92;;
55455;SDS011;63021;52.836;6.376;2023-03-14T12:43:45;6.05;;;1.38;;
55455;SDS011;63021;52.836;6.376;2023-03-14T12:48:45;8.25;;;1.95;;
55455;SDS011;63021;52.836;6.376;2023-03-14T12:51:13;7.53;;;1.80;;
55455;SDS011;63021;52.836;6.376;2023-03-14T13:04:35;23.65;;;3.60;;
55455;SDS011;63021;52.836;6.376;2023-03-14T13:07:12;10.57;;;2.00;;
55455;SDS011;63021;52.836;6.376;2023-03-14T13:09:55;14.57;;;3.08;;
55455;SDS011;63021;52.836;6.376;2023-03-14T13:12:37;6.43;;;2.00;;
55455;SDS011;63021;52.836;6.376;2023-03-14T13:15:32;5.50;;;1.80;;
55455;SDS011;63021;52.836;6.376;2023-03-14T13:18:16;12.93;;;2.58;;
55455;SDS011;63021;52.836;6.376;2023-03-14T13:20:54;6.63;;;1.58;;
55455;SDS011;63021;52.836;6.376;2023-03-14T13:23:24;5.55;;;1.52;;
55455;SDS011;63021;52.836;6.376;2023-03-14T13:25:53;11.05;;;2.70;;
55455;SDS011;63021;52.836;6.376;2023-03-14T13:28:19;7.10;;;1.42;;
55455;SDS011;63021;52.836;6.376;2023-03-14T13:30:45;5.75;;;1.55;;
55455;SDS011;63021;52.836;6.376;2023-03-14T13:33:14;5.68;;;1.17;;
55455;SDS011;63021;52.836;6.376;2023-03-14T13:35:44;5.50;;;1.30;;
55455;SDS011;63021;52.836;6.376;2023-03-14T13:38:16;4.47;;;1.83;;
55455;SDS011;63021;52.836;6.376;2023-03-14T13:40:44;9.98;;;1.60;;
55455;SDS011;63021;52.836;6.376;2023-03-14T13:43:15;4.60;;;1.40;;
55455;SDS011;63021;52.836;6.376;2023-03-14T13:46:00;5.72;;;1.30;;
55455;SDS011;63021;52.836;6.376;2023-03-14T13:48:49;10.40;;;1.80;;
55455;SDS011;63021;52.836;6.376;2023-03-14T13:51:26;9.50;;;2.05;;
55455;SDS011;63021;52.836;6.376;2023-03-14T13:53:56;4.45;;;1.60;;
55455;SDS011;63021;52.836;6.376;2023-03-14T13:56:24;4.03;;;1.60;;
55455;SDS011;63021;52.836;6.376;2023-03-14T13:58:52;7.35;;;1.73;;
55455;SDS011;63021;52.836;6.376;2023-03-14T14:01:26;7.97;;;1.80;;
55455;SDS011;63021;52.836;6.376;2023-03-14T14:03:56;11.25;;;2.85;;
55455;SDS011;63021;52.836;6.376;2023-03-14T14:06:27;7.53;;;1.90;;
55455;SDS011;63021;52.836;6.376;2023-03-14T14:08:54;6.60;;;1.83;;
55455;SDS011;63021;52.836;6.376;2023-03-14T14:11:22;7.57;;;1.83;;
55455;SDS011;63021;52.836;6.376;2023-03-14T14:14:01;11.00;;;1.58;;
55455;SDS011;63021;52.836;6.376;2023-03-14T14:16:27;5.63;;;1.67;;
55455;SDS011;63021;52.836;6.376;2023-03-14T14:18:55;7.22;;;1.80;;
55455;SDS011;63021;52.836;6.376;2023-03-14T14:21:24;3.58;;;1.77;;
55455;SDS011;63021;52.836;6.376;2023-03-14T14:23:51;9.73;;;2.05;;
55455;SDS011;63021;52.836;6.376;2023-03-14T14:26:17;7.47;;;2.17;;
55455;SDS011;63021;52.836;6.376;2023-03-14T14:28:44;4.72;;;1.88;;
55455;SDS011;63021;52.836;6.376;2023-03-14T14:34:03;5.97;;;1.63;;
55455;SDS011;63021;52.836;6.376;2023-03-14T14:39:15;7.38;;;1.73;;
55455;SDS011;63021;52.836;6.376;2023-03-14T14:41:43;11.68;;;2.90;;
55455;SDS011;63021;52.836;6.376;2023-03-14T14:44:13;7.55;;;1.60;;
55455;SDS011;63021;52.836;6.376;2023-03-14T14:46:41;4.40;;;1.30;;
55455;SDS011;63021;52.836;6.376;2023-03-14T14:49:16;10.75;;;3.28;;
55455;SDS011;63021;52.836;6.376;2023-03-14T14:51:47;6.03;;;1.55;;
55455;SDS011;63021;52.836;6.376;2023-03-14T14:54:15;7.63;;;1.45;;
55455;SDS011;63021;52.836;6.376;2023-03-14T14:56:48;6.43;;;1.70;;
55455;SDS011;63021;52.836;6.376;2023-03-14T14:59:22;10.55;;;2.90;;
55455;SDS011;63021;52.836;6.376;2023-03-14T15:02:01;5.57;;;2.05;;
55455;SDS011;63021;52.836;6.376;2023-03-14T15:06:55;3.92;;;1.17;;
55455;SDS011;63021;52.836;6.376;2023-03-14T15:09:20;4.78;;;1.80;;
55455;SDS011;63021;52.836;6.376;2023-03-14T15:11:46;7.65;;;2.38;;
55455;SDS011;63021;52.836;6.376;2023-03-14T15:14:12;15.73;;;3.65;;
55455;SDS011;63021;52.836;6.376;2023-03-14T15:16:38;6.55;;;2.53;;
55455;SDS011;63021;52.836;6.376;2023-03-14T15:19:12;6.88;;;1.70;;
55455;SDS011;63021;52.836;6.376;2023-03-14T15:21:45;6.07;;;1.40;;
55455;SDS011;63021;52.836;6.376;2023-03-14T15:24:10;7.85;;;1.63;;
55455;SDS011;63021;52.836;6.376;2023-03-14T15:26:35;6.07;;;1.77;;
55455;SDS011;63021;52.836;6.376;2023-03-14T15:29:01;6.28;;;1.65;;
55455;SDS011;63021;52.836;6.376;2023-03-14T15:31:26;6.38;;;1.90;;
55455;SDS011;63021;52.836;6.376;2023-03-14T15:33:52;11.48;;;2.58;;
55455;SDS011;63021;52.836;6.376;2023-03-14T15:36:27;8.40;;;2.35;;
55455;SDS011;63021;52.836;6.376;2023-03-14T15:38:58;8.02;;;2.15;;
55455;SDS011;63021;52.836;6.376;2023-03-14T15:41:25;6.63;;;2.20;;
55455;SDS011;63021;52.836;6.376;2023-03-14T15:43:51;8.45;;;1.92;;
55455;SDS011;63021;52.836;6.376;2023-03-14T15:46:17;15.35;;;4.32;;
55455;SDS011;63021;52.836;6.376;2023-03-14T15:48:46;8.15;;;2.15;;
55455;SDS011;63021;52.836;6.376;2023-03-14T15:51:11;9.48;;;2.38;;
55455;SDS011;63021;52.836;6.376;2023-03-14T15:53:39;6.40;;;2.35;;
55455;SDS011;63021;52.836;6.376;2023-03-14T15:56:06;10.68;;;2.88;;
55455;SDS011;63021;52.836;6.376;2023-03-14T15:58:35;8.55;;;3.22;;
55455;SDS011;63021;52.836;6.376;2023-03-14T16:01:01;6.80;;;1.77;;
55455;SDS011;63021;52.836;6.376;2023-03-14T16:03:27;9.35;;;2.90;;
55455;SDS011;63021;52.836;6.376;2023-03-14T16:05:53;9.82;;;2.17;;
55455;SDS011;63021;52.836;6.376;2023-03-14T16:08:19;11.05;;;2.10;;
55455;SDS011;63021;52.836;6.376;2023-03-14T16:10:45;9.38;;;2.20;;
55455;SDS011;63021;52.836;6.376;2023-03-14T16:13:11;6.10;;;2.28;;